createdAt,value
2023-04-08T00:01:12.859Z,7.00
2023-04-08T00:03:40.110Z,6.90
2023-04-08T00:06:08.376Z,6.90
2023-04-08T00:08:35.888Z,6.90
2023-04-08T00:11:05.899Z,6.90
2023-04-08T00:13:33.526Z,6.90
2023-04-08T00:16:04.778Z,6.90
2023-04-08T00:18:32.213Z,6.90
2023-04-08T00:20:59.381Z,6.90
2023-04-08T00:23:36.074Z,6.90
2023-04-08T00:26:04.607Z,6.90
2023-04-08T00:28:32.599Z,6.80
2023-04-08T00:31:01.284Z,6.90
2023-04-08T00:33:31.349Z,6.90
2023-04-08T00:35:58.541Z,6.80
2023-04-08T00:38:25.814Z,6.80
2023-04-08T00:40:53.286Z,6.80
2023-04-08T00:43:21.384Z,6.80
2023-04-08T00:45:48.779Z,6.80
2023-04-08T00:48:17.232Z,6.80
2023-04-08T00:50:49.072Z,6.70
2023-04-08T00:53:19.057Z,6.70
2023-04-08T00:55:46.659Z,6.60
2023-04-08T00:58:14.726Z,6.60
2023-04-08T01:00:46.812Z,6.60
2023-04-08T01:03:17.518Z,6.50
2023-04-08T01:06:03.633Z,6.50
2023-04-08T01:08:31.595Z,6.40
2023-04-08T01:11:01.194Z,6.40
2023-04-08T01:13:30.152Z,6.30
2023-04-08T01:15:57.429Z,6.20
2023-04-08T01:18:25.026Z,6.20
2023-04-08T01:20:53.157Z,6.10
2023-04-08T01:23:30.617Z,6.10
2023-04-08T01:25:58.180Z,6.10
2023-04-08T01:28:28.407Z,6.10
2023-04-08T01:31:00.489Z,6.20
2023-04-08T01:33:28.519Z,6.20
2023-04-08T01:35:56.836Z,6.20
2023-04-08T01:38:26.182Z,6.20
2023-04-08T01:40:54.959Z,6.20
2023-04-08T01:43:23.431Z,6.40
2023-04-08T01:45:54.605Z,6.40
2023-04-08T01:48:22.311Z,6.40
2023-04-08T01:50:51.438Z,6.40
2023-04-08T01:53:18.680Z,6.40
2023-04-08T01:55:46.149Z,6.50
2023-04-08T01:58:18.414Z,6.50
2023-04-08T02:00:46.447Z,6.50
2023-04-08T02:03:17.635Z,6.50
2023-04-08T02:05:46.663Z,6.50
2023-04-08T02:08:13.808Z,6.40
2023-04-08T02:10:41.274Z,6.40
2023-04-08T02:13:08.421Z,6.30
2023-04-08T02:15:36.485Z,6.20
2023-04-08T02:18:10.957Z,6.20
2023-04-08T02:20:41.719Z,6.20
2023-04-08T02:23:14.994Z,6.20
2023-04-08T02:25:44.554Z,6.30
2023-04-08T02:28:12.015Z,6.30
2023-04-08T02:30:42.920Z,6.30
2023-04-08T02:33:11.427Z,6.30
2023-04-08T02:35:40.701Z,6.20
2023-04-08T02:38:09.794Z,6.20
2023-04-08T02:40:37.465Z,6.20
2023-04-08T02:43:04.639Z,6.20
2023-04-08T02:45:32.844Z,6.20
2023-04-08T02:48:00.868Z,6.30
2023-04-08T02:50:28.046Z,6.20
2023-04-08T02:52:55.793Z,6.20
2023-04-08T02:55:23.051Z,6.20
2023-04-08T02:57:50.215Z,6.20
2023-04-08T03:00:17.551Z,6.20
2023-04-08T03:02:44.836Z,6.20
2023-04-08T03:05:12.118Z,6.10
2023-04-08T03:07:39.274Z,6.10
2023-04-08T03:10:06.883Z,6.10
2023-04-08T03:12:34.061Z,6.10
2023-04-08T03:15:01.898Z,6.10
2023-04-08T03:17:29.227Z,6.10
2023-04-08T03:19:56.666Z,6.10
2023-04-08T03:22:24.487Z,6.10
2023-04-08T03:24:51.854Z,6.10
2023-04-08T03:27:18.936Z,6.00
2023-04-08T03:29:46.716Z,6.00
2023-04-08T03:32:14.180Z,5.90
2023-04-08T03:34:41.411Z,5.90
2023-04-08T03:37:08.565Z,5.80
2023-04-08T03:39:35.693Z,5.80
2023-04-08T03:42:03.258Z,5.80
2023-04-08T03:44:30.500Z,5.80
2023-04-08T03:46:57.644Z,5.70
2023-04-08T03:49:25.004Z,5.60
2023-04-08T03:51:52.063Z,5.60
2023-04-08T03:54:19.307Z,5.50
2023-04-08T03:56:46.384Z,5.50
2023-04-08T03:59:13.552Z,5.50
2023-04-08T04:01:41.950Z,5.40
2023-04-08T04:04:09.449Z,5.40
2023-04-08T04:06:36.766Z,5.40
2023-04-08T04:09:03.898Z,5.40
2023-04-08T04:11:31.078Z,5.40
2023-04-08T04:13:58.228Z,5.40
2023-04-08T04:16:25.553Z,5.40
2023-04-08T04:18:53.669Z,5.50
2023-04-08T04:21:21.249Z,5.50
2023-04-08T04:23:48.452Z,5.50
2023-04-08T04:26:15.706Z,5.50
2023-04-08T04:28:42.853Z,5.50
2023-04-08T04:31:18.149Z,5.60
2023-04-08T04:33:45.440Z,5.60
2023-04-08T04:36:12.552Z,5.60
2023-04-08T04:38:39.703Z,5.70
2023-04-08T04:41:07.154Z,5.70
2023-04-08T04:43:34.389Z,5.70
2023-04-08T04:46:02.480Z,5.70
2023-04-08T04:48:29.716Z,5.70
2023-04-08T04:50:57.072Z,5.80
2023-04-08T04:53:24.303Z,5.80
2023-04-08T04:55:51.594Z,5.80
2023-04-08T04:58:19.317Z,5.80
2023-04-08T05:00:46.919Z,5.80
2023-04-08T05:03:14.135Z,5.90
2023-04-08T05:05:41.639Z,5.90
2023-04-08T05:08:08.750Z,5.90
2023-04-08T05:10:35.930Z,6.00
2023-04-08T05:13:03.071Z,6.00
2023-04-08T05:15:30.164Z,6.10
2023-04-08T05:17:57.363Z,6.20
2023-04-08T05:20:24.511Z,6.20
2023-04-08T05:22:51.690Z,6.20
2023-04-08T05:25:18.945Z,6.20
2023-04-08T05:27:46.935Z,6.20
2023-04-08T05:30:14.046Z,6.20
2023-04-08T05:32:41.402Z,6.00
2023-04-08T05:35:09.765Z,6.10
2023-04-08T05:37:36.918Z,6.20
2023-04-08T05:40:04.341Z,6.20
2023-04-08T05:42:32.292Z,6.20
2023-04-08T05:44:59.456Z,6.20
2023-04-08T05:47:26.594Z,6.30
2023-04-08T05:49:53.774Z,6.20
2023-04-08T05:52:21.381Z,6.30
2023-04-08T05:54:48.439Z,6.40
2023-04-08T05:57:16.919Z,6.40
2023-04-08T05:59:44.136Z,6.40
2023-04-08T06:02:11.776Z,6.50
2023-04-08T06:04:39.070Z,6.60
2023-04-08T06:07:08.481Z,6.50
2023-04-08T06:09:37.190Z,6.60
2023-04-08T06:12:04.433Z,6.70
2023-04-08T06:14:31.497Z,6.80
2023-04-08T06:16:58.791Z,6.80
2023-04-08T06:19:26.063Z,6.80
2023-04-08T06:21:58.833Z,6.90
2023-04-08T06:24:27.479Z,6.90
2023-04-08T06:26:54.736Z,6.80
2023-04-08T06:29:22.368Z,6.80
2023-04-08T06:31:49.782Z,6.70
2023-04-08T06:34:17.076Z,6.70
2023-04-08T06:36:44.288Z,6.60
2023-04-08T06:39:11.542Z,6.60
2023-04-08T06:41:38.683Z,6.50
2023-04-08T06:44:19.777Z,6.40
2023-04-08T06:46:46.996Z,6.20
2023-04-08T06:49:14.117Z,6.10
2023-04-08T06:51:41.551Z,6.10
2023-04-08T06:54:10.244Z,6.10
2023-04-08T06:56:37.717Z,6.10
2023-04-08T06:59:05.741Z,6.10
2023-04-08T07:01:33.036Z,6.10
2023-04-08T07:04:02.429Z,6.10
2023-04-08T07:06:29.753Z,6.20
2023-04-08T07:08:56.829Z,6.30
2023-04-08T07:11:23.937Z,6.30
2023-04-08T07:13:52.558Z,6.20
2023-04-08T07:16:19.873Z,6.10
2023-04-08T07:18:47.792Z,6.20
2023-04-08T07:21:14.999Z,6.20
2023-04-08T07:23:42.503Z,6.20
2023-04-08T07:26:09.958Z,6.30
2023-04-08T07:28:37.048Z,6.30
2023-04-08T07:31:10.953Z,6.30
2023-04-08T07:33:38.128Z,6.20
2023-04-08T07:36:05.422Z,6.30
2023-04-08T07:38:32.926Z,6.30
2023-04-08T07:41:00.421Z,6.20
2023-04-08T07:43:27.545Z,6.20
2023-04-08T07:45:54.665Z,6.20
2023-04-08T07:48:21.834Z,6.20
2023-04-08T07:51:08.816Z,6.20
2023-04-08T07:53:36.162Z,6.30
2023-04-08T07:56:06.799Z,6.20
2023-04-08T07:58:34.117Z,6.10
2023-04-08T08:01:01.480Z,6.20
2023-04-08T08:03:29.116Z,6.20
2023-04-08T08:05:57.417Z,6.20
2023-04-08T08:08:24.477Z,6.10
2023-04-08T08:10:51.603Z,6.00
2023-04-08T08:13:21.292Z,6.10
2023-04-08T08:15:52.647Z,6.30
2023-04-08T08:18:19.898Z,6.50
2023-04-08T08:20:47.068Z,6.40
2023-04-08T08:23:14.199Z,6.50
2023-04-08T08:25:41.363Z,6.40
2023-04-08T08:28:08.499Z,6.40
2023-04-08T08:30:35.721Z,6.40
2023-04-08T08:33:03.012Z,6.50
2023-04-08T08:35:30.136Z,6.50
2023-04-08T08:37:57.341Z,6.40
2023-04-08T08:40:24.511Z,6.40
2023-04-08T08:42:55.233Z,6.60
2023-04-08T08:45:22.736Z,6.30
2023-04-08T08:47:51.219Z,6.30
2023-04-08T08:50:19.072Z,6.30
2023-04-08T08:52:50.181Z,6.50
2023-04-08T08:55:36.650Z,6.70
2023-04-08T08:58:08.107Z,6.90
2023-04-08T09:00:36.597Z,7.20
2023-04-08T09:03:22.387Z,7.40
2023-04-08T09:05:51.164Z,7.40
2023-04-08T09:08:24.455Z,7.40
2023-04-08T09:10:51.789Z,7.50
2023-04-08T09:13:18.933Z,7.60
2023-04-08T09:16:05.691Z,7.60
2023-04-08T09:18:33.470Z,7.70
2023-04-08T09:21:01.991Z,7.80
2023-04-08T09:23:43.122Z,7.70
2023-04-08T09:26:11.654Z,7.70
2023-04-08T09:28:39.479Z,7.80
2023-04-08T09:31:23.142Z,7.70
2023-04-08T09:33:54.406Z,7.60
2023-04-08T09:36:21.575Z,7.30
2023-04-08T09:38:49.150Z,7.20
2023-04-08T09:41:17.463Z,7.10
2023-04-08T09:43:49.617Z,7.10
2023-04-08T09:46:18.464Z,7.20
2023-04-08T09:49:06.427Z,7.20
2023-04-08T09:51:37.124Z,7.10
2023-04-08T09:54:06.822Z,7.10
2023-04-08T09:56:39.361Z,7.20
2023-04-08T09:59:17.647Z,7.30
2023-04-08T10:01:52.649Z,7.40
2023-04-08T10:04:21.339Z,7.40
2023-04-08T10:06:57.834Z,7.10
2023-04-08T10:09:25.319Z,7.10
2023-04-08T10:11:53.767Z,7.20
2023-04-08T10:14:22.360Z,7.20
2023-04-08T10:16:50.452Z,7.30
2023-04-08T10:19:44.702Z,7.30
2023-04-08T10:22:27.479Z,7.40
2023-04-08T10:25:13.213Z,7.40
2023-04-08T10:27:43.359Z,7.50
2023-04-08T10:30:36.769Z,7.70
2023-04-08T10:33:09.565Z,7.90
2023-04-08T10:35:37.181Z,8.00
2023-04-08T10:38:04.422Z,8.30
2023-04-08T10:40:37.667Z,8.30
2023-04-08T10:43:05.688Z,8.30
2023-04-08T10:45:32.952Z,8.20
2023-04-08T10:48:19.134Z,8.10
2023-04-08T10:50:54.182Z,8.00
2023-04-08T10:53:28.474Z,8.20
2023-04-08T10:56:03.528Z,8.50
2023-04-08T10:58:30.854Z,8.50
2023-04-08T11:01:03.418Z,8.60
2023-04-08T11:03:33.799Z,8.70
2023-04-08T11:06:01.904Z,8.70
2023-04-08T11:08:33.149Z,8.90
2023-04-08T11:11:11.308Z,9.10
2023-04-08T11:13:51.218Z,9.20
2023-04-08T11:16:21.395Z,9.10
2023-04-08T11:18:49.618Z,9.60
2023-04-08T11:21:17.313Z,9.90
2023-04-08T11:23:44.622Z,10.40
2023-04-08T11:26:11.832Z,10.70
2023-04-08T11:28:39.251Z,11.10
2023-04-08T11:31:08.898Z,10.90
2023-04-08T11:33:36.505Z,10.70
2023-04-08T11:36:04.864Z,10.60
2023-04-08T11:38:32.153Z,10.20
2023-04-08T11:41:03.397Z,10.00
2023-04-08T11:43:33.768Z,9.50
2023-04-08T11:46:00.958Z,9.30
2023-04-08T11:48:28.947Z,9.00
2023-04-08T11:51:03.690Z,9.00
2023-04-08T11:53:30.931Z,8.90
2023-04-08T11:55:58.131Z,8.90
2023-04-08T11:58:25.209Z,9.00
2023-04-08T12:00:52.373Z,9.10
2023-04-08T12:03:19.584Z,9.00
2023-04-08T12:05:46.779Z,9.10
2023-04-08T12:08:13.978Z,9.40
2023-04-08T12:10:41.315Z,9.40
2023-04-08T12:13:08.694Z,9.30
2023-04-08T12:15:35.907Z,9.40
2023-04-08T12:18:03.915Z,9.60
2023-04-08T12:20:32.846Z,9.60
2023-04-08T12:23:00.125Z,9.70
2023-04-08T12:25:27.880Z,9.70
2023-04-08T12:27:55.102Z,9.80
2023-04-08T12:30:22.395Z,9.80
2023-04-08T12:32:49.596Z,9.80
2023-04-08T12:35:16.677Z,9.80
2023-04-08T12:37:43.859Z,9.70
2023-04-08T12:40:11.227Z,9.60
2023-04-08T12:42:38.414Z,9.70
2023-04-08T12:45:05.767Z,9.80
2023-04-08T12:47:33.554Z,9.80
2023-04-08T12:50:00.701Z,9.90
2023-04-08T12:52:28.038Z,9.80
2023-04-08T12:54:55.332Z,9.90
2023-04-08T12:57:22.592Z,10.00
2023-04-08T12:59:49.682Z,10.00
2023-04-08T13:02:16.870Z,9.80
2023-04-08T13:04:44.304Z,9.90
2023-04-08T13:07:11.458Z,9.70
2023-04-08T13:09:38.618Z,9.70
2023-04-08T13:12:05.977Z,9.50
2023-04-08T13:14:33.071Z,9.50
2023-04-08T13:17:00.164Z,9.50
2023-04-08T13:19:27.297Z,9.70
2023-04-08T13:21:54.376Z,9.60
2023-04-08T13:24:21.525Z,9.70
2023-04-08T13:26:48.693Z,9.80
2023-04-08T13:29:15.975Z,9.90
2023-04-08T13:31:43.182Z,10.00
2023-04-08T13:34:10.356Z,10.00
2023-04-08T13:36:37.549Z,9.80
2023-04-08T13:39:04.831Z,9.90
2023-04-08T13:41:32.101Z,9.90
2023-04-08T13:43:59.180Z,9.90
2023-04-08T13:46:27.001Z,10.00
2023-04-08T13:48:55.410Z,10.10
2023-04-08T13:51:22.497Z,10.20
2023-04-08T13:53:49.607Z,10.20
2023-04-08T13:56:16.694Z,10.30
2023-04-08T13:58:46.162Z,10.30
2023-04-08T14:01:17.457Z,10.50
2023-04-08T14:03:44.687Z,10.60
2023-04-08T14:06:12.046Z,10.80
2023-04-08T14:08:39.166Z,11.00
2023-04-08T14:11:06.347Z,11.30
2023-04-08T14:13:33.969Z,11.80
2023-04-08T14:16:02.504Z,12.40
2023-04-08T14:18:29.819Z,13.10
2023-04-08T14:20:57.598Z,13.40
2023-04-08T14:23:24.663Z,13.40
2023-04-08T14:25:51.750Z,13.90
2023-04-08T14:28:18.856Z,13.90
2023-04-08T14:30:46.985Z,14.30
2023-04-08T14:33:14.175Z,14.70
2023-04-08T14:35:41.411Z,14.90
2023-04-08T14:38:08.657Z,15.10
2023-04-08T14:40:37.562Z,15.00
2023-04-08T14:43:05.103Z,14.80
2023-04-08T14:45:33.251Z,14.30
2023-04-08T14:48:00.368Z,13.90
2023-04-08T14:50:27.611Z,13.60
2023-04-08T14:52:54.714Z,13.50
2023-04-08T14:55:22.777Z,13.30
2023-04-08T14:57:49.936Z,12.90
2023-04-08T15:00:17.079Z,12.80
2023-04-08T15:02:44.399Z,12.70
2023-04-08T15:05:11.716Z,12.60
2023-04-08T15:07:38.809Z,12.50
2023-04-08T15:10:06.281Z,12.20
2023-04-08T15:12:33.520Z,12.10
2023-04-08T15:15:00.716Z,12.00
2023-04-08T15:17:28.106Z,11.90
2023-04-08T15:19:55.260Z,11.70
2023-04-08T15:22:22.611Z,11.60
2023-04-08T15:24:49.802Z,11.60
2023-04-08T15:27:17.544Z,11.60
2023-04-08T15:29:44.875Z,11.80
2023-04-08T15:32:11.964Z,11.80
2023-04-08T15:34:39.247Z,11.80
2023-04-08T15:37:06.504Z,11.80
2023-04-08T15:39:33.804Z,11.70
2023-04-08T15:42:01.652Z,11.60
2023-04-08T15:44:31.252Z,11.30
2023-04-08T15:46:58.566Z,11.10
2023-04-08T15:49:25.887Z,11.10
2023-04-08T15:51:53.668Z,11.00
2023-04-08T15:54:20.754Z,11.00
2023-04-08T15:56:47.938Z,10.90
2023-04-08T15:59:15.191Z,11.00
2023-04-08T16:01:42.384Z,11.00
2023-04-08T16:04:09.791Z,10.90
2023-04-08T16:06:37.019Z,10.90
2023-04-08T16:09:04.268Z,11.00
2023-04-08T16:11:33.258Z,10.90
2023-04-08T16:14:00.432Z,11.00
2023-04-08T16:17:06.708Z,11.00
2023-04-08T16:19:33.948Z,11.10
2023-04-08T16:22:01.196Z,11.10
2023-04-08T16:24:28.476Z,11.10
2023-04-08T16:26:55.665Z,11.20
2023-04-08T16:29:22.945Z,11.20
2023-04-08T16:31:51.343Z,11.20
2023-04-08T16:34:20.743Z,11.20
2023-04-08T16:36:48.056Z,11.20
2023-04-08T16:39:15.580Z,11.20
2023-04-08T16:41:42.820Z,11.20
2023-04-08T16:44:10.448Z,11.00
2023-04-08T16:46:38.134Z,10.90
2023-04-08T16:49:05.406Z,10.80
2023-04-08T16:51:32.701Z,10.70
2023-04-08T16:54:00.213Z,10.60
2023-04-08T16:56:27.792Z,10.60
2023-04-08T16:58:55.088Z,10.50
2023-04-08T17:01:22.465Z,10.30
2023-04-08T17:03:50.392Z,10.30
2023-04-08T17:06:17.921Z,10.20
2023-04-08T17:08:45.329Z,10.20
2023-04-08T17:11:14.343Z,10.10
2023-04-08T17:13:43.125Z,10.00
2023-04-08T17:16:15.153Z,9.90
2023-04-08T17:18:43.164Z,9.90
2023-04-08T17:21:12.022Z,9.80
2023-04-08T17:23:39.187Z,9.70
2023-04-08T17:26:07.679Z,9.70
2023-04-08T17:28:35.528Z,9.60
2023-04-08T17:31:03.141Z,9.60
2023-04-08T17:33:30.407Z,9.50
2023-04-08T17:35:57.671Z,9.50
2023-04-08T17:38:25.043Z,9.40
2023-04-08T17:40:52.244Z,9.30
2023-04-08T17:43:19.525Z,9.20
2023-04-08T17:45:47.102Z,9.20
2023-04-08T17:48:14.632Z,9.20
2023-04-08T17:50:41.899Z,9.20
2023-04-08T17:53:09.125Z,9.10
2023-04-08T17:55:36.297Z,9.10
2023-04-08T17:58:04.437Z,9.00
2023-04-08T18:00:31.706Z,9.00
2023-04-08T18:02:59.112Z,9.00
2023-04-08T18:05:27.364Z,9.00
2023-04-08T18:07:54.555Z,8.90
2023-04-08T18:10:23.175Z,8.90
2023-04-08T18:12:54.681Z,8.90
2023-04-08T18:15:25.096Z,8.80
2023-04-08T18:17:52.355Z,8.80
2023-04-08T18:20:19.819Z,8.80
2023-04-08T18:22:46.994Z,8.80
2023-04-08T18:25:14.432Z,8.80
2023-04-08T18:27:41.656Z,8.80
2023-04-08T18:30:09.424Z,8.70
2023-04-08T18:32:36.711Z,8.70
2023-04-08T18:35:04.073Z,8.70
2023-04-08T18:37:31.712Z,8.70
2023-04-08T18:39:59.825Z,8.70
2023-04-08T18:42:27.211Z,8.60
2023-04-08T18:44:54.410Z,8.60
2023-04-08T18:47:21.872Z,8.60
2023-04-08T18:49:49.096Z,8.50
2023-04-08T18:52:16.296Z,8.50
2023-04-08T18:54:43.470Z,8.50
2023-04-08T18:57:10.850Z,8.50
2023-04-08T18:59:38.046Z,8.50
2023-04-08T19:02:05.425Z,8.50
2023-04-08T19:04:33.534Z,8.50
2023-04-08T19:07:00.808Z,8.40
2023-04-08T19:09:28.007Z,8.40
2023-04-08T19:11:55.468Z,8.40
2023-04-08T19:14:23.062Z,8.40
2023-04-08T19:16:50.359Z,8.30
2023-04-08T19:19:17.530Z,8.30
2023-04-08T19:21:44.841Z,8.30
2023-04-08T19:24:12.173Z,8.20
2023-04-08T19:26:39.456Z,8.20
2023-04-08T19:29:06.681Z,8.20
2023-04-08T19:31:33.994Z,8.20
2023-04-08T19:34:01.346Z,8.20
2023-04-08T19:36:28.696Z,8.20
2023-04-08T19:38:55.968Z,8.10
2023-04-08T19:41:23.612Z,8.10
2023-04-08T19:43:51.077Z,8.10
2023-04-08T19:46:18.544Z,8.10
2023-04-08T19:48:46.545Z,8.10
2023-04-08T19:51:22.671Z,8.00
2023-04-08T19:53:51.167Z,8.10
2023-04-08T19:56:18.652Z,8.00
2023-04-08T19:58:46.522Z,8.00
2023-04-08T20:01:14.334Z,8.00
2023-04-08T20:03:42.321Z,8.00
2023-04-08T20:06:09.706Z,8.00
2023-04-08T20:08:37.069Z,8.00
2023-04-08T20:11:04.870Z,8.00
2023-04-08T20:13:32.132Z,8.00
2023-04-08T20:15:59.388Z,8.00
2023-04-08T20:18:27.341Z,8.00
2023-04-08T20:20:54.916Z,8.00
2023-04-08T20:23:22.723Z,8.00
2023-04-08T20:25:50.405Z,8.00
2023-04-08T20:28:18.933Z,8.00
2023-04-08T20:30:46.542Z,8.00
2023-04-08T20:33:13.881Z,7.90
2023-04-08T20:35:41.494Z,7.90
2023-04-08T20:38:08.801Z,7.90
2023-04-08T20:40:36.161Z,7.90
2023-04-08T20:43:03.414Z,8.00
2023-04-08T20:45:30.846Z,7.90
2023-04-08T20:47:58.138Z,8.00
2023-04-08T20:50:25.527Z,8.00
2023-04-08T20:52:53.027Z,7.90
2023-04-08T20:55:20.395Z,8.00
2023-04-08T20:57:48.074Z,7.90
2023-04-08T21:00:17.065Z,7.90
2023-04-08T21:02:45.109Z,7.90
2023-04-08T21:05:12.459Z,7.90
2023-04-08T21:07:44.496Z,7.90
2023-04-08T21:10:15.128Z,7.90
2023-04-08T21:12:42.307Z,7.90
2023-04-08T21:15:10.207Z,7.80
2023-04-08T21:17:37.476Z,7.90
2023-04-08T21:20:05.554Z,7.80
2023-04-08T21:22:32.920Z,7.80
2023-04-08T21:25:00.144Z,7.90
2023-04-08T21:27:28.942Z,7.90
2023-04-08T21:29:56.333Z,7.90
2023-04-08T21:32:23.875Z,7.90
2023-04-08T21:34:54.265Z,7.90
2023-04-08T21:37:22.785Z,7.90
2023-04-08T21:39:50.345Z,7.90
2023-04-08T21:42:17.860Z,7.90
2023-04-08T21:44:45.020Z,7.90
2023-04-08T21:47:12.221Z,7.80
2023-04-08T21:49:39.448Z,7.90
2023-04-08T21:52:06.932Z,7.90
2023-04-08T21:54:34.171Z,7.90
2023-04-08T21:57:01.844Z,7.90
2023-04-08T21:59:29.164Z,7.90
2023-04-08T22:01:56.657Z,7.90
2023-04-08T22:04:23.963Z,7.90
2023-04-08T22:06:51.327Z,7.90
2023-04-08T22:09:19.554Z,7.90
2023-04-08T22:11:46.913Z,7.80
2023-04-08T22:14:14.227Z,7.80
2023-04-08T22:16:41.823Z,7.80
2023-04-08T22:19:09.099Z,7.80
2023-04-08T22:21:36.472Z,7.80
2023-04-08T22:24:03.797Z,7.80
2023-04-08T22:26:31.085Z,7.80
2023-04-08T22:28:58.379Z,7.80
2023-04-08T22:31:25.704Z,7.80
2023-04-08T22:33:52.962Z,7.80
2023-04-08T22:36:20.523Z,7.80
2023-04-08T22:38:47.931Z,7.80
2023-04-08T22:41:22.094Z,7.80
2023-04-08T22:43:50.254Z,7.80
2023-04-08T22:46:18.643Z,7.80
2023-04-08T22:48:46.738Z,7.70
2023-04-08T22:51:14.119Z,7.80
2023-04-08T22:53:41.782Z,7.80
2023-04-08T22:56:09.190Z,7.70
2023-04-08T22:58:36.434Z,7.70
2023-04-08T23:01:11.775Z,7.70
2023-04-08T23:03:39.259Z,7.70
2023-04-08T23:06:06.503Z,7.70
2023-04-08T23:08:33.727Z,7.70
2023-04-08T23:11:01.096Z,7.70
2023-04-08T23:13:28.473Z,7.80
2023-04-08T23:15:55.765Z,7.70
2023-04-08T23:18:23.066Z,7.70
2023-04-08T23:20:53.981Z,7.80
2023-04-08T23:23:22.038Z,7.70
2023-04-08T23:25:49.371Z,7.70
2023-04-08T23:28:16.695Z,7.70
2023-04-08T23:30:44.094Z,7.70
2023-04-08T23:33:11.341Z,7.70
2023-04-08T23:35:42.239Z,7.70
2023-04-08T23:38:09.623Z,7.70
2023-04-08T23:40:36.973Z,7.70
2023-04-08T23:43:04.318Z,7.70
2023-04-08T23:45:31.567Z,7.60
2023-04-08T23:47:59.063Z,7.70
2023-04-08T23:50:26.517Z,7.70
2023-04-08T23:52:53.808Z,7.70
2023-04-08T23:55:21.244Z,7.60
2023-04-08T23:57:50.863Z,7.70
